• Join FlightAware (Why Join?)
  • Login
  • US Flag GB Flag 
23:29 EST


 

Airport Tracker/Info


-or-


 

Live Flight TrackerFlight Track Log ✈ IFL511 ✈ 08-May-2013 ✈ MMMY / MTY - KPTK

Flight Track Log - Related Links

Times and Time Zones

All times are in EDT time to prevent confusion due to time zone crossing. See the IFL511 flight status page for this flight to view local times or setup timezone preferences in your user account.

Time Position Orientation Groundspeed Altitude Reporting Facility
EDT Latitude Longitude Course Direction KTS MPH feet Rate Location/Type
11:30 26.7222 -99.5531 North 366 421 29,300  Level Houston Center
11:31 26.8300 -99.5336 North 366 421 30,200 780 Climbing Houston Center
11:32 26.9328 -99.5139 10° North 373 429 31,000 720 Climbing Houston Center
11:33 27.0381 -99.4967 North 379 436 31,800 720 Climbing Houston Center
11:34 27.1569 -99.4742 10° North 382 440 32,600 780 Climbing Houston Center
11:35 27.2631 -99.4558 North 384 442 33,500 900 Climbing Houston Center
11:36 27.3675 -99.4375 North 381 438 34,500 720 Climbing Houston Center
11:37 27.4694 -99.4164 10° North 375 432 35,100 480 Climbing Houston Center
11:38 27.5664 -99.3464 33° Northeast 411 473 35,500 420 Climbing Houston Center
11:39 27.6653 -99.2606 38° Northeast 421 484 36,000 480 Climbing Houston Center
11:40 27.7722 -99.1711 36° Northeast 421 484 36,600 480 Climbing Houston Center
11:41 27.8667 -99.0925 36° Northeast 420 483 37,000 180 Climbing Houston Center
11:42 27.9608 -99.0142 36° Northeast 420 483 37,000  Level Houston Center
11:43 28.0572 -98.9325 37° Northeast 427 491 37,000  Level Houston Center
11:44 28.1547 -98.8514 36° Northeast 433 498 37,000  Level Houston Center
11:45 28.2531 -98.7667 37° Northeast 440 506 37,000  Level Houston Center
11:46 28.3711 -98.6658 37° Northeast 442 509 37,000  Level Houston Center
11:47 28.4728 -98.5822 36° Northeast 447 514 37,000  Level Houston Center
11:48 28.5728 -98.4969 37° Northeast 449 517 37,000  Level Houston Center
11:49 28.6714 -98.4117 37° Northeast 448 516 37,000  Level Houston Center
11:50 28.7883 -98.3133 36° Northeast 448 516 37,000  Level Houston Center
11:51 28.8886 -98.2278 37° Northeast 451 519 37,000  Level Houston Center
11:52 28.9964 -98.1333 37° Northeast 452 520 37,000  Level Houston Center
11:53 29.0969 -98.0478 37° Northeast 452 520 37,000  Level Houston Center
11:54 29.2039 -97.9553 37° Northeast 450 518 37,000  Level Houston Center
11:55 29.3042 -97.8689 37° Northeast 451 519 37,000  Level Houston Center
11:56 29.3967 -97.7869 38° Northeast 460 529 37,000  Level Houston Center
11:58 29.4983 -97.6986 37° Northeast 457 526 37,000  Level Houston Center
11:59 29.6194 -97.5925 37° Northeast 456 525 37,000  Level Houston Center
12:00 29.7211 -97.5031 37° Northeast 456 525 37,000  Level Houston Center
12:01 29.8233 -97.4133 37° Northeast 459 528 37,000  Level Houston Center
12:02 29.9244 -97.3244 37° Northeast 457 526 37,000  Level Houston Center
12:03 30.0253 -97.2353 37° Northeast 454 522 37,000  Level Houston Center
12:04 30.1375 -97.1356 38° Northeast 457 526 37,000  Level Houston Center
12:05 30.2386 -97.0469 37° Northeast 454 522 37,000  Level Houston Center
12:06 30.3400 -96.9561 38° Northeast 456 525 37,000  Level Houston Center
12:07 30.4414 -96.8658 38° Northeast 458 527 37,000  Level Houston Center
12:08 30.5603 -96.7586 38° Northeast 460 529 37,000  Level Houston Center
12:09 30.6594 -96.6692 38° Northeast 454 522 37,000  Level Houston Center
12:10 30.7614 -96.5778 38° Northeast 459 528 37,000  Level Houston Center
12:11 30.8622 -96.4872 38° Northeast 457 526 37,000  Level Houston Center
12:12 30.9636 -96.3953 38° Northeast 461 531 37,000  Level Houston Center
12:13 31.0639 -96.3044 38° Northeast 456 525 37,000  Level Houston Center
12:14 31.1819 -96.1983 38° Northeast 456 525 37,000  Level Houston Center
12:15 31.2822 -96.1069 38° Northeast 456 525 37,000  Level Houston Center
12:16 31.3914 -96.0075 38° Northeast 457 526 37,000  Level Houston Center
12:17 31.4917 -95.9147 38° Northeast 457 526 37,000  Level Houston Center
12:18 31.5925 -95.8214 38° Northeast 461 531 37,000  Level Houston Center
12:19 31.6936 -95.7283 38° Northeast 460 529 37,000  Level Houston Center
12:20 31.7958 -95.6339 38° Northeast 464 534 37,000  Level Houston Center
12:21 31.8989 -95.5439 37° Northeast 459 528 37,000  Level Fort Worth Center
12:22 31.9997 -95.4486 39° Northeast 459 528 37,000  Level Fort Worth Center
12:23 32.1006 -95.3533 39° Northeast 459 528 37,000  Level Fort Worth Center
12:24 32.1992 -95.2578 39° Northeast 459 528 37,000  Level Fort Worth Center
12:25 32.3019 -95.1669 37° Northeast 459 528 37,000  Level Fort Worth Center
12:26 32.4044 -95.0636 40° Northeast 459 528 37,000  Level Fort Worth Center
12:27 32.5111 -94.9597 39° Northeast 459 528 37,000  Level Fort Worth Center
12:28 32.6114 -94.8633 39° Northeast 454 522 37,000  Level Fort Worth Center
12:29 32.7117 -94.7692 38° Northeast 454 522 37,000  Level Fort Worth Center
12:30 32.8139 -94.6722 39° Northeast 459 528 37,000  Level Fort Worth Center
12:31 32.9122 -94.5775 39° Northeast 459 528 37,000  Level Fort Worth Center
12:32 33.0142 -94.4803 39° Northeast 459 528 37,000  Level Fort Worth Center
12:33 33.1164 -94.3875 37° Northeast 459 528 37,000  Level Fort Worth Center
12:34 33.1958 -94.3081 40° Northeast 459 528 37,000  Level Fort Worth Center
12:35 33.3061 -94.2047 38° Northeast 459 528 37,000  Level Fort Worth Center
12:36 33.4081 -94.1114 37° Northeast 459 528 37,000  Level Fort Worth Center
12:37 33.5117 -94.0103 39° Northeast 465 535 37,000  Level Fort Worth Center
12:38 33.6092 -93.9094 41° Northeast 465 535 37,000  Level Fort Worth Center
12:39 33.7086 -93.8106 40° Northeast 460 529 37,000  Level Fort Worth Center
12:41 33.9069 -93.6158 39° Northeast 464 534 37,000  Level Memphis Center
12:42 34.0075 -93.5169 39° Northeast 464 534 37,000  Level Memphis Center
12:43 34.1039 -93.4225 39° Northeast 464 534 37,000  Level Memphis Center
12:44 34.2022 -93.3231 40° Northeast 459 528 37,000  Level Memphis Center
12:45 34.3028 -93.2233 39° Northeast 459 528 37,000  Level Memphis Center
12:46 34.3903 -93.1283 42° Northeast 465 535 37,000  Level Memphis Center
12:47 34.4864 -93.0356 38° Northeast 460 529 37,000  Level Memphis Center
12:48 34.5844 -92.9378 39° Northeast 460 529 37,000  Level Memphis Center
12:49 34.6844 -92.8347 40° Northeast 454 522 37,000  Level Memphis Center
12:50 34.7803 -92.7389 39° Northeast 459 528 37,000  Level Memphis Center
12:51 34.8803 -92.6378 40° Northeast 459 528 37,000  Level Memphis Center
12:52 34.9781 -92.5367 40° Northeast 459 528 37,000  Level Memphis Center
12:53 35.0778 -92.4378 39° Northeast 459 528 37,000  Level Memphis Center
12:54 35.1753 -92.3361 40° Northeast 459 528 37,000  Level Memphis Center
12:55 35.2750 -92.2342 40° Northeast 465 535 37,000  Level Memphis Center
12:56 35.3703 -92.1319 41° Northeast 465 535 37,000  Level Memphis Center
12:57 35.4697 -92.0319 39° Northeast 465 535 37,000  Level Memphis Center
12:58 35.5756 -91.9192 41° Northeast 460 529 37,000  Level Memphis Center
12:59 35.6747 -91.8189 39° Northeast 460 529 37,000  Level Memphis Center
13:00 35.7717 -91.7156 41° Northeast 460 529 37,000  Level Memphis Center
13:01 35.8686 -91.6172 39° Northeast 460 529 37,000  Level Memphis Center
13:02 35.9594 -91.5161 42° Northeast 454 522 37,000  Level Memphis Center
13:03 36.0542 -91.4172 40° Northeast 447 514 37,000  Level Memphis Center
13:04 36.1486 -91.3131 42° Northeast 440 506 37,000  Level Memphis Center
13:05 36.2453 -91.2114 40° Northeast 445 512 37,000  Level Memphis Center
13:06 36.3419 -91.1092 40° Northeast 445 512 37,000  Level Memphis Center
13:07 36.4383 -91.0069 40° Northeast 445 512 37,000  Level Memphis Center
13:08 36.5328 -90.9069 40° Northeast 450 518 37,000  Level Memphis Center
13:09 36.6289 -90.8017 41° Northeast 450 518 37,000  Level Memphis Center
13:10 36.7253 -90.6986 41° Northeast 450 518 37,000  Level Memphis Center
13:12 36.8803 -90.5289 41° Northeast 451 519 37,000  Level Kansas City Center
13:13 36.9750 -90.4244 41° Northeast 451 519 37,000  Level Kansas City Center
13:14 37.0683 -90.3219 41° Northeast 448 516 37,000  Level Kansas City Center
13:15 37.1614 -90.2186 41° Northeast 444 511 37,000  Level Kansas City Center
13:16 37.2553 -90.1153 41° Northeast 446 513 37,000  Level Kansas City Center
13:17 37.3475 -90.0128 41° Northeast 444 511 37,000  Level Kansas City Center
13:18 37.4597 -89.8881 41° Northeast 444 511 37,000  Level Kansas City Center
13:19 37.5531 -89.7839 41° Northeast 445 512 37,000  Level Kansas City Center
13:20 37.6456 -89.6811 41° Northeast 448 516 37,000  Level Kansas City Center
13:21 37.7369 -89.5761 42° Northeast 448 516 37,000  Level Kansas City Center
13:22 37.8386 -89.4617 42° Northeast 447 514 37,000  Level Kansas City Center
13:23 37.9389 -89.3500 41° Northeast 448 516 37,000  Level Kansas City Center
13:24 38.0306 -89.2461 42° Northeast 445 512 37,000  Level Kansas City Center
13:25 38.1289 -89.1333 42° Northeast 444 511 37,000  Level Kansas City Center
13:26 38.2197 -89.0289 42° Northeast 443 510 37,000  Level Kansas City Center
13:27 38.3050 -88.9294 42° Northeast 443 510 37,000  Level Kansas City Center
13:28 38.4086 -88.8119 42° Northeast 443 510 37,000  Level Kansas City Center
13:29 38.5058 -88.6989 42° Northeast 441 507 37,000  Level Kansas City Center
13:30 38.5861 -88.6025 43° Northeast 444 511 37,000  Level Kansas City Center
13:32 38.6792 -88.4947 42° Northeast 446 513 37,000  Level Kansas City Center
13:33 38.7714 -88.3872 42° Northeast 446 513 37,000  Level Kansas City Center
13:34 38.8828 -88.2561 42° Northeast 447 514 37,000  Level Kansas City Center
13:34 38.9378 -88.1917 42° Northeast 449 517 37,000  Level Indianapolis Center
13:35 39.0300 -88.0811 43° Northeast 450 518 37,000  Level Indianapolis Center
13:36 39.1233 -87.9725 42° Northeast 450 518 37,000  Level Indianapolis Center
13:37 39.1614 -87.9261 43° Northeast 450 518 37,000  Level Kansas City Center
13:37 39.2156 -87.8608 43° Northeast 452 520 37,000  Level Indianapolis Center
13:38 39.3261 -87.7269 43° Northeast 452 520 37,000  Level Indianapolis Center
13:39 39.4206 -87.6136 43° Northeast 454 522 37,000 -540 Level Indianapolis Center
13:40 39.5167 -87.5019 42° Northeast 461 531 35,900 -1,020 Descending Indianapolis Center
13:42 39.6133 -87.3828 44° Northeast 475 547 35,000 -480 Descending Indianapolis Center
13:43 39.6992 -87.2586 48° Northeast 468 539 35,000  Level Indianapolis Center
13:44 39.7786 -87.1294 51° Northeast 461 531 35,000  Level Indianapolis Center
13:45 39.8606 -87.0017 50° Northeast 460 529 35,000  Level Indianapolis Center
13:46 39.9417 -86.8736 50° Northeast 457 526 35,000  Level Indianapolis Center
13:47 40.0222 -86.7450 51° Northeast 457 526 35,000  Level Indianapolis Center
13:48 40.1197 -86.5908 50° Northeast 457 526 35,000  Level Indianapolis Center
13:48 40.1681 -86.5142 50° Northeast 455 524 35,000  Level Chicago Center
13:49 40.2483 -86.3867 50° Northeast 453 521 35,000  Level Chicago Center
13:50 40.3364 -86.2700 45° Northeast 450 518 35,000  Level Chicago Center
13:51 40.4275 -86.1594 43° Northeast 448 516 35,000 -780 Level Chicago Center
13:52 40.5186 -86.0461 43° Northeast 449 517 33,400 -1,800 Descending Chicago Center
13:53 40.6125 -85.9300 43° Northeast 460 529 31,400 -2,040 Descending Chicago Center
13:54 40.7089 -85.8097 43° Northeast 459 528 29,300 -2,040 Descending Chicago Center
13:56 40.8000 -85.6936 44° Northeast 456 525 27,300 -2,100 Descending Chicago Center
13:57 40.9072 -85.5594 43° Northeast 445 512 25,000 -2,100 Descending Chicago Center
13:58 40.9931 -85.4497 44° Northeast 435 501 23,000 -1,860 Descending Chicago Center
13:59 41.0783 -85.3417 44° Northeast 428 493 21,200 -1,020 Descending Chicago Center
14:00 41.1650 -85.2286 44° Northeast 437 503 21,000 -120 Descending Chicago Center
14:01 41.2486 -85.1197 44° Northeast 429 494 21,000  Level Chicago Center
14:02 41.3706 -85.0331 28° Northeast 423 487 21,000 -120 Level Chicago Center
14:03 41.4836 -84.9928 15° North 423 487 20,800 -1,080 Descending Chicago Center
14:04 41.5983 -84.9475 16° North 432 497 18,800 -2,100 Descending Chicago Center
14:04 41.6417 -84.9322 15° North 426 490 18,000 -2,100 Descending Cleveland Center
14:05 41.7406 -84.8581 29° Northeast 399 459 16,100 -1,980 Descending Cleveland Center
14:06 41.7847 -84.7300 65° Northeast 358 412 14,100 -2,040 Descending Cleveland Center
14:07 41.8247 -84.6044 67° East 358 412 12,100 -1,980 Descending Cleveland Center
14:08 41.8644 -84.4786 67° East 358 412 10,200 -1,500 Descending Cleveland Center
14:08 41.8764 -84.4347 70° East 364 419 10,100 -240 Descending Cleveland Center
14:09 41.8950 -84.3772 66° East 336 387 10,000 -120 Descending Cleveland Center
14:10 41.9322 -84.2622 66° East 315 362 10,000  Level Cleveland Center
14:11 41.9669 -84.1553 66° East 302 348 10,000 -60 Level Cleveland Center
14:12 42.0250 -84.0969 37° Northeast 273 314 9,900 -1,020 Descending Cleveland Center
14:13 42.0925 -84.0700 16° North 254 292 7,900 -1,860 Descending Cleveland Center
14:14 42.1747 -84.0381 16° North 282 325 6,100 -960 Descending Cleveland Center
14:15 42.2511 -83.9972 22° Northeast 278 320 6,000 -60 Descending Cleveland Center
14:16 42.3167 -83.9642 20° North 262 302 6,000  Level Cleveland Center
14:17 42.3803 -83.9283 23° Northeast 262 302 6,000  Level Cleveland Center
14:18 42.4544 -83.8900 21° North 258 297 6,000 -60 Level Cleveland Center
14:19 42.5203 -83.8456 26° Northeast 247 284 5,900 -840 Descending Cleveland Center
14:20 42.5597 -83.7800 51° Northeast 241 277 4,400 -1,140 Descending Cleveland Center
14:21 42.5992 -83.7031 55° Northeast 240 276 3,700 -660 Descending Cleveland Center
14:22 42.6364 -83.6369 53° Northeast 223 257 3,100 -360 Descending Cleveland Center
14:23 42.6650 -83.5819 55° Northeast 131 151 3,000 -300 Descending Cleveland Center
14:24 42.6600 -83.5336 98° East 141 162 2,500 -720 Descending Cleveland Center
14:25 42.6594 -83.4686 91° East 173 199 1,600 -900 Descending Cleveland Center